Aspen Park, Colorado
Current Conditions -  °F | °C
As of 8:53 AM on Sunday 25 Jan 2015 (Local Time) from KAPA Reporting Station
Scattered Clouds Scattered Clouds  
Wind Chill: 44°   Ceiling: Unl
Heat Index: 44°   Visibility: 10mi
Dew Point: 28°   Wind: 0mph
Humidity: 53%   Direction: NA
Pressure: 30.18"   Gusts: NA
Location:  39.4975°N, 105.289°W
Report Text: KAPA 251553Z 00000KT 10SM FEW050 FEW070 SCT120 SCT200 07/M02 A3018 RMK AO2 SLP214 SHSN OMTNS DSNT NW T00671022
Loading
Personal Weather Stations






























Interactive Weather Map New forecast layout! Learn more

10-Day Weather Forecast

Advertisements
Track Severe Weather on mobile